sensor_id;sensor_type;location;lat;lon;timestamp;P1;durP1;ratioP1;P2;durP2;ratioP2
66893;SDS011;53801;55.786;49.142;2023-08-20T00:00:58;7.40;;;1.43;;
66893;SDS011;53801;55.786;49.142;2023-08-20T00:03:25;5.85;;;1.08;;
66893;SDS011;53801;55.786;49.142;2023-08-20T00:05:51;4.93;;;1.00;;
66893;SDS011;53801;55.786;49.142;2023-08-20T00:08:16;3.28;;;1.00;;
66893;SDS011;53801;55.786;49.142;2023-08-20T00:10:42;3.37;;;1.43;;
66893;SDS011;53801;55.786;49.142;2023-08-20T00:13:07;5.40;;;1.30;;
66893;SDS011;53801;55.786;49.142;2023-08-20T00:15:33;3.83;;;1.20;;
66893;SDS011;53801;55.786;49.142;2023-08-20T00:17:59;3.13;;;1.20;;
66893;SDS011;53801;55.786;49.142;2023-08-20T00:20:24;8.13;;;1.23;;
66893;SDS011;53801;55.786;49.142;2023-08-20T00:22:50;4.53;;;1.15;;
66893;SDS011;53801;55.786;49.142;2023-08-20T00:25:16;5.77;;;1.60;;
66893;SDS011;53801;55.786;49.142;2023-08-20T00:27:42;4.20;;;1.40;;
66893;SDS011;53801;55.786;49.142;2023-08-20T00:30:08;6.65;;;1.50;;
66893;SDS011;53801;55.786;49.142;2023-08-20T00:32:34;5.87;;;1.57;;
66893;SDS011;53801;55.786;49.142;2023-08-20T00:35:00;2.22;;;1.10;;
66893;SDS011;53801;55.786;49.142;2023-08-20T00:37:30;2.65;;;1.35;;
66893;SDS011;53801;55.786;49.142;2023-08-20T00:39:56;3.38;;;1.60;;
66893;SDS011;53801;55.786;49.142;2023-08-20T00:42:22;5.00;;;1.30;;
66893;SDS011;53801;55.786;49.142;2023-08-20T00:44:47;4.27;;;1.60;;
66893;SDS011;53801;55.786;49.142;2023-08-20T00:47:13;3.80;;;1.10;;
66893;SDS011;53801;55.786;49.142;2023-08-20T00:49:39;2.33;;;1.15;;
66893;SDS011;53801;55.786;49.142;2023-08-20T00:52:06;4.00;;;1.00;;
66893;SDS011;53801;55.786;49.142;2023-08-20T00:54:33;6.70;;;1.38;;
66893;SDS011;53801;55.786;49.142;2023-08-20T00:56:59;4.50;;;0.93;;
66893;SDS011;53801;55.786;49.142;2023-08-20T00:59:24;4.87;;;1.13;;
66893;SDS011;53801;55.786;49.142;2023-08-20T01:01:50;4.00;;;1.10;;
66893;SDS011;53801;55.786;49.142;2023-08-20T01:07:02;3.65;;;1.00;;
66893;SDS011;53801;55.786;49.142;2023-08-20T01:12:08;3.95;;;1.38;;
66893;SDS011;53801;55.786;49.142;2023-08-20T01:14:36;5.93;;;1.53;;
66893;SDS011;53801;55.786;49.142;2023-08-20T01:17:01;4.65;;;1.48;;
66893;SDS011;53801;55.786;49.142;2023-08-20T01:19:27;7.87;;;1.40;;
66893;SDS011;53801;55.786;49.142;2023-08-20T01:25:07;4.90;;;1.30;;
66893;SDS011;53801;55.786;49.142;2023-08-20T01:28:30;5.43;;;1.65;;
66893;SDS011;53801;55.786;49.142;2023-08-20T01:30:57;5.60;;;1.20;;
66893;SDS011;53801;55.786;49.142;2023-08-20T01:33:24;3.10;;;1.00;;
66893;SDS011;53801;55.786;49.142;2023-08-20T01:35:50;5.97;;;1.40;;
66893;SDS011;53801;55.786;49.142;2023-08-20T01:38:15;3.70;;;1.20;;
66893;SDS011;53801;55.786;49.142;2023-08-20T01:40:41;4.57;;;1.27;;
66893;SDS011;53801;55.786;49.142;2023-08-20T01:43:06;3.72;;;1.33;;
66893;SDS011;53801;55.786;49.142;2023-08-20T01:45:32;6.13;;;1.50;;
66893;SDS011;53801;55.786;49.142;2023-08-20T01:47:58;8.30;;;1.50;;
66893;SDS011;53801;55.786;49.142;2023-08-20T01:50:23;5.40;;;1.40;;
66893;SDS011;53801;55.786;49.142;2023-08-20T01:52:49;5.80;;;1.40;;
66893;SDS011;53801;55.786;49.142;2023-08-20T01:55:14;3.50;;;1.23;;
66893;SDS011;53801;55.786;49.142;2023-08-20T01:57:40;11.50;;;1.73;;
66893;SDS011;53801;55.786;49.142;2023-08-20T02:00:05;6.10;;;1.37;;
66893;SDS011;53801;55.786;49.142;2023-08-20T02:02:32;3.33;;;1.50;;
66893;SDS011;53801;55.786;49.142;2023-08-20T02:04:58;4.00;;;1.20;;
66893;SDS011;53801;55.786;49.142;2023-08-20T02:07:23;2.58;;;1.10;;
66893;SDS011;53801;55.786;49.142;2023-08-20T02:09:49;3.93;;;1.20;;
66893;SDS011;53801;55.786;49.142;2023-08-20T02:12:14;3.50;;;1.10;;
66893;SDS011;53801;55.786;49.142;2023-08-20T02:14:40;3.85;;;1.13;;
66893;SDS011;53801;55.786;49.142;2023-08-20T02:17:06;3.40;;;1.25;;
66893;SDS011;53801;55.786;49.142;2023-08-20T02:19:32;6.22;;;1.50;;
66893;SDS011;53801;55.786;49.142;2023-08-20T02:21:57;5.07;;;1.20;;
66893;SDS011;53801;55.786;49.142;2023-08-20T02:24:23;4.72;;;1.52;;
66893;SDS011;53801;55.786;49.142;2023-08-20T02:26:49;5.27;;;1.23;;
66893;SDS011;53801;55.786;49.142;2023-08-20T02:29:14;4.03;;;1.00;;
66893;SDS011;53801;55.786;49.142;2023-08-20T02:31:40;4.60;;;1.35;;
66893;SDS011;53801;55.786;49.142;2023-08-20T02:34:05;3.50;;;1.00;;
66893;SDS011;53801;55.786;49.142;2023-08-20T02:36:31;5.13;;;1.00;;
66893;SDS011;53801;55.786;49.142;2023-08-20T02:38:56;5.17;;;1.33;;
66893;SDS011;53801;55.786;49.142;2023-08-20T02:41:21;3.60;;;1.10;;
66893;SDS011;53801;55.786;49.142;2023-08-20T02:43:47;3.90;;;1.40;;
66893;SDS011;53801;55.786;49.142;2023-08-20T02:46:13;6.87;;;1.67;;
66893;SDS011;53801;55.786;49.142;2023-08-20T02:48:38;5.57;;;1.20;;
66893;SDS011;53801;55.786;49.142;2023-08-20T02:51:04;2.57;;;1.17;;
66893;SDS011;53801;55.786;49.142;2023-08-20T02:53:29;3.27;;;1.03;;
66893;SDS011;53801;55.786;49.142;2023-08-20T02:55:55;3.05;;;0.80;;
66893;SDS011;53801;55.786;49.142;2023-08-20T02:58:22;2.07;;;0.87;;
66893;SDS011;53801;55.786;49.142;2023-08-20T03:00:47;4.75;;;0.90;;
66893;SDS011;53801;55.786;49.142;2023-08-20T03:03:12;4.70;;;0.83;;
66893;SDS011;53801;55.786;49.142;2023-08-20T03:05:38;5.07;;;1.10;;
66893;SDS011;53801;55.786;49.142;2023-08-20T03:08:04;3.63;;;0.95;;
66893;SDS011;53801;55.786;49.142;2023-08-20T03:10:30;2.80;;;1.00;;
66893;SDS011;53801;55.786;49.142;2023-08-20T03:12:59;12.90;;;1.80;;
66893;SDS011;53801;55.786;49.142;2023-08-20T03:15:26;6.88;;;1.20;;
66893;SDS011;53801;55.786;49.142;2023-08-20T03:17:51;3.63;;;1.03;;
66893;SDS011;53801;55.786;49.142;2023-08-20T03:20:17;2.45;;;1.00;;
66893;SDS011;53801;55.786;49.142;2023-08-20T03:22:42;2.15;;;1.20;;
66893;SDS011;53801;55.786;49.142;2023-08-20T03:25:08;3.63;;;1.47;;
66893;SDS011;53801;55.786;49.142;2023-08-20T03:27:33;3.20;;;1.17;;
66893;SDS011;53801;55.786;49.142;2023-08-20T03:29:59;4.03;;;1.38;;
66893;SDS011;53801;55.786;49.142;2023-08-20T03:32:25;6.00;;;1.30;;
66893;SDS011;53801;55.786;49.142;2023-08-20T03:34:50;2.55;;;1.20;;
66893;SDS011;53801;55.786;49.142;2023-08-20T03:37:16;3.03;;;1.50;;
66893;SDS011;53801;55.786;49.142;2023-08-20T03:39:41;5.53;;;1.23;;
66893;SDS011;53801;55.786;49.142;2023-08-20T03:42:07;3.25;;;1.20;;
66893;SDS011;53801;55.786;49.142;2023-08-20T03:44:32;3.13;;;1.40;;
66893;SDS011;53801;55.786;49.142;2023-08-20T03:46:58;4.27;;;1.50;;
66893;SDS011;53801;55.786;49.142;2023-08-20T03:49:23;7.97;;;1.70;;
66893;SDS011;53801;55.786;49.142;2023-08-20T03:51:49;2.17;;;1.50;;
66893;SDS011;53801;55.786;49.142;2023-08-20T03:54:15;2.90;;;1.60;;
66893;SDS011;53801;55.786;49.142;2023-08-20T03:56:40;5.57;;;1.58;;
66893;SDS011;53801;55.786;49.142;2023-08-20T03:59:06;3.50;;;1.80;;
66893;SDS011;53801;55.786;49.142;2023-08-20T04:01:32;4.18;;;1.67;;
66893;SDS011;53801;55.786;49.142;2023-08-20T04:03:57;3.88;;;2.13;;
66893;SDS011;53801;55.786;49.142;2023-08-20T04:06:23;4.57;;;2.17;;
66893;SDS011;53801;55.786;49.142;2023-08-20T04:08:48;4.18;;;1.80;;
66893;SDS011;53801;55.786;49.142;2023-08-20T04:11:14;5.67;;;2.43;;
66893;SDS011;53801;55.786;49.142;2023-08-20T04:13:40;4.70;;;2.27;;
66893;SDS011;53801;55.786;49.142;2023-08-20T04:16:08;5.47;;;2.10;;
66893;SDS011;53801;55.786;49.142;2023-08-20T04:18:38;3.72;;;2.00;;
66893;SDS011;53801;55.786;49.142;2023-08-20T04:21:03;3.93;;;2.17;;
66893;SDS011;53801;55.786;49.142;2023-08-20T04:23:29;2.92;;;2.33;;
66893;SDS011;53801;55.786;49.142;2023-08-20T04:25:54;4.70;;;2.50;;
66893;SDS011;53801;55.786;49.142;2023-08-20T04:28:20;8.90;;;2.63;;
66893;SDS011;53801;55.786;49.142;2023-08-20T04:33:20;7.93;;;2.77;;
66893;SDS011;53801;55.786;49.142;2023-08-20T04:35:48;3.65;;;2.70;;
66893;SDS011;53801;55.786;49.142;2023-08-20T04:38:13;3.70;;;2.80;;
66893;SDS011;53801;55.786;49.142;2023-08-20T04:40:39;6.83;;;2.90;;
66893;SDS011;53801;55.786;49.142;2023-08-20T04:43:04;4.07;;;3.30;;
66893;SDS011;53801;55.786;49.142;2023-08-20T04:45:30;5.17;;;3.20;;
66893;SDS011;53801;55.786;49.142;2023-08-20T04:47:55;5.57;;;3.28;;
66893;SDS011;53801;55.786;49.142;2023-08-20T04:50:21;6.50;;;3.37;;
66893;SDS011;53801;55.786;49.142;2023-08-20T04:52:46;5.80;;;3.47;;
66893;SDS011;53801;55.786;49.142;2023-08-20T04:55:12;7.32;;;3.80;;
66893;SDS011;53801;55.786;49.142;2023-08-20T04:57:37;4.97;;;3.60;;
66893;SDS011;53801;55.786;49.142;2023-08-20T05:00:03;5.40;;;3.67;;
66893;SDS011;53801;55.786;49.142;2023-08-20T05:02:30;8.98;;;4.13;;
66893;SDS011;53801;55.786;49.142;2023-08-20T05:04:56;5.20;;;3.47;;
66893;SDS011;53801;55.786;49.142;2023-08-20T05:07:21;8.35;;;3.90;;
66893;SDS011;53801;55.786;49.142;2023-08-20T05:09:47;5.60;;;3.30;;
66893;SDS011;53801;55.786;49.142;2023-08-20T05:12:12;6.13;;;4.77;;
66893;SDS011;53801;55.786;49.142;2023-08-20T05:14:38;4.97;;;4.00;;
66893;SDS011;53801;55.786;49.142;2023-08-20T05:17:05;4.32;;;3.97;;
66893;SDS011;53801;55.786;49.142;2023-08-20T05:19:31;5.65;;;4.22;;
66893;SDS011;53801;55.786;49.142;2023-08-20T05:21:57;6.00;;;4.35;;
66893;SDS011;53801;55.786;49.142;2023-08-20T05:24:24;10.60;;;4.30;;
66893;SDS011;53801;55.786;49.142;2023-08-20T05:30:17;4.23;;;3.83;;
66893;SDS011;53801;55.786;49.142;2023-08-20T05:33:00;5.70;;;4.43;;
66893;SDS011;53801;55.786;49.142;2023-08-20T05:35:26;5.70;;;4.15;;
66893;SDS011;53801;55.786;49.142;2023-08-20T05:37:52;5.10;;;4.60;;
66893;SDS011;53801;55.786;49.142;2023-08-20T05:45:29;5.22;;;4.22;;
66893;SDS011;53801;55.786;49.142;2023-08-20T05:47:55;5.05;;;4.65;;
66893;SDS011;53801;55.786;49.142;2023-08-20T05:50:20;5.90;;;3.93;;
66893;SDS011;53801;55.786;49.142;2023-08-20T05:52:46;4.37;;;4.07;;
66893;SDS011;53801;55.786;49.142;2023-08-20T05:55:11;5.00;;;4.50;;
66893;SDS011;53801;55.786;49.142;2023-08-20T05:57:37;5.03;;;4.72;;
66893;SDS011;53801;55.786;49.142;2023-08-20T06:00:03;4.93;;;4.63;;
66893;SDS011;53801;55.786;49.142;2023-08-20T06:02:30;4.75;;;4.45;;
66893;SDS011;53801;55.786;49.142;2023-08-20T06:04:56;5.37;;;4.97;;
66893;SDS011;53801;55.786;49.142;2023-08-20T06:07:21;5.13;;;4.73;;
66893;SDS011;53801;55.786;49.142;2023-08-20T06:09:47;5.15;;;4.75;;
66893;SDS011;53801;55.786;49.142;2023-08-20T06:12:12;5.37;;;4.97;;
66893;SDS011;53801;55.786;49.142;2023-08-20T06:14:38;5.40;;;4.90;;
66893;SDS011;53801;55.786;49.142;2023-08-20T06:17:03;3.67;;;3.38;;
66893;SDS011;53801;55.786;49.142;2023-08-20T06:19:29;15.70;;;4.37;;
66893;SDS011;53801;55.786;49.142;2023-08-20T06:21:55;5.15;;;4.68;;
66893;SDS011;53801;55.786;49.142;2023-08-20T06:24:20;5.05;;;4.65;;
66893;SDS011;53801;55.786;49.142;2023-08-20T06:26:46;5.43;;;5.03;;
66893;SDS011;53801;55.786;49.142;2023-08-20T06:29:11;5.13;;;4.72;;
66893;SDS011;53801;55.786;49.142;2023-08-20T06:31:37;5.00;;;4.60;;
66893;SDS011;53801;55.786;49.142;2023-08-20T06:36:50;5.43;;;5.03;;
66893;SDS011;53801;55.786;49.142;2023-08-20T06:39:15;5.00;;;4.60;;
66893;SDS011;53801;55.786;49.142;2023-08-20T06:41:41;4.63;;;4.32;;
66893;SDS011;53801;55.786;49.142;2023-08-20T06:44:06;6.00;;;5.00;;
66893;SDS011;53801;55.786;49.142;2023-08-20T06:46:32;6.50;;;4.60;;
66893;SDS011;53801;55.786;49.142;2023-08-20T06:48:58;5.57;;;4.47;;
66893;SDS011;53801;55.786;49.142;2023-08-20T06:51:23;6.00;;;4.63;;
66893;SDS011;53801;55.786;49.142;2023-08-20T06:53:50;5.35;;;4.82;;
66893;SDS011;53801;55.786;49.142;2023-08-20T06:56:16;4.90;;;4.43;;
66893;SDS011;53801;55.786;49.142;2023-08-20T06:58:41;5.18;;;4.78;;
66893;SDS011;53801;55.786;49.142;2023-08-20T07:01:07;6.68;;;6.03;;
66893;SDS011;53801;55.786;49.142;2023-08-20T07:03:40;6.90;;;6.10;;
66893;SDS011;53801;55.786;49.142;2023-08-20T07:06:06;4.95;;;4.35;;
66893;SDS011;53801;55.786;49.142;2023-08-20T07:08:31;4.97;;;4.50;;
66893;SDS011;53801;55.786;49.142;2023-08-20T07:10:57;5.70;;;5.20;;
66893;SDS011;53801;55.786;49.142;2023-08-20T07:13:22;5.82;;;5.43;;
66893;SDS011;53801;55.786;49.142;2023-08-20T07:15:48;4.80;;;4.40;;
66893;SDS011;53801;55.786;49.142;2023-08-20T07:18:14;5.13;;;4.73;;
66893;SDS011;53801;55.786;49.142;2023-08-20T07:20:43;5.43;;;4.75;;
66893;SDS011;53801;55.786;49.142;2023-08-20T07:23:09;5.32;;;4.93;;
66893;SDS011;53801;55.786;49.142;2023-08-20T07:25:38;6.03;;;5.53;;
66893;SDS011;53801;55.786;49.142;2023-08-20T07:28:07;5.35;;;4.95;;
66893;SDS011;53801;55.786;49.142;2023-08-20T07:30:34;5.93;;;5.37;;
66893;SDS011;53801;55.786;49.142;2023-08-20T07:32:59;4.50;;;4.10;;
66893;SDS011;53801;55.786;49.142;2023-08-20T07:35:25;6.13;;;5.63;;
66893;SDS011;53801;55.786;49.142;2023-08-20T07:37:50;8.85;;;5.85;;
66893;SDS011;53801;55.786;49.142;2023-08-20T07:40:16;5.20;;;4.45;;
66893;SDS011;53801;55.786;49.142;2023-08-20T07:42:42;5.60;;;5.20;;
66893;SDS011;53801;55.786;49.142;2023-08-20T07:45:07;6.27;;;5.77;;
66893;SDS011;53801;55.786;49.142;2023-08-20T07:47:33;6.15;;;5.65;;
66893;SDS011;53801;55.786;49.142;2023-08-20T07:50:07;4.87;;;4.47;;
66893;SDS011;53801;55.786;49.142;2023-08-20T07:52:32;6.30;;;5.80;;
66893;SDS011;53801;55.786;49.142;2023-08-20T07:54:58;5.17;;;4.67;;
66893;SDS011;53801;55.786;49.142;2023-08-20T07:57:23;4.85;;;4.45;;
66893;SDS011;53801;55.786;49.142;2023-08-20T07:59:49;4.27;;;3.50;;
66893;SDS011;53801;55.786;49.142;2023-08-20T08:02:18;3.83;;;3.53;;
66893;SDS011;53801;55.786;49.142;2023-08-20T08:05:04;4.00;;;3.50;;
66893;SDS011;53801;55.786;49.142;2023-08-20T08:07:30;4.50;;;4.10;;
66893;SDS011;53801;55.786;49.142;2023-08-20T08:10:02;4.32;;;3.90;;
66893;SDS011;53801;55.786;49.142;2023-08-20T08:12:30;4.88;;;4.57;;
66893;SDS011;53801;55.786;49.142;2023-08-20T08:14:56;4.93;;;4.53;;
66893;SDS011;53801;55.786;49.142;2023-08-20T08:17:21;4.00;;;3.60;;
66893;SDS011;53801;55.786;49.142;2023-08-20T08:19:52;4.35;;;4.05;;
66893;SDS011;53801;55.786;49.142;2023-08-20T08:22:19;4.40;;;4.03;;
66893;SDS011;53801;55.786;49.142;2023-08-20T08:24:44;5.53;;;5.03;;
66893;SDS011;53801;55.786;49.142;2023-08-20T08:27:10;6.10;;;4.77;;
66893;SDS011;53801;55.786;49.142;2023-08-20T08:29:35;5.57;;;5.07;;
66893;SDS011;53801;55.786;49.142;2023-08-20T08:32:01;5.00;;;4.60;;
66893;SDS011;53801;55.786;49.142;2023-08-20T08:34:26;4.93;;;4.37;;
66893;SDS011;53801;55.786;49.142;2023-08-20T08:36:52;5.50;;;4.27;;
66893;SDS011;53801;55.786;49.142;2023-08-20T08:39:17;4.50;;;4.10;;
66893;SDS011;53801;55.786;49.142;2023-08-20T08:41:43;6.97;;;3.77;;
66893;SDS011;53801;55.786;49.142;2023-08-20T08:44:12;6.15;;;4.53;;
66893;SDS011;53801;55.786;49.142;2023-08-20T08:46:38;5.07;;;4.60;;
66893;SDS011;53801;55.786;49.142;2023-08-20T08:49:04;5.07;;;4.70;;
66893;SDS011;53801;55.786;49.142;2023-08-20T08:51:30;5.35;;;4.80;;
66893;SDS011;53801;55.786;49.142;2023-08-20T08:53:57;5.47;;;4.93;;
66893;SDS011;53801;55.786;49.142;2023-08-20T08:56:22;5.25;;;4.78;;
66893;SDS011;53801;55.786;49.142;2023-08-20T08:59:09;5.00;;;4.60;;
66893;SDS011;53801;55.786;49.142;2023-08-20T09:01:47;5.40;;;4.97;;
66893;SDS011;53801;55.786;49.142;2023-08-20T09:04:15;5.43;;;4.20;;
66893;SDS011;53801;55.786;49.142;2023-08-20T09:09:30;7.32;;;5.30;;
66893;SDS011;53801;55.786;49.142;2023-08-20T09:11:56;5.57;;;5.07;;
66893;SDS011;53801;55.786;49.142;2023-08-20T09:14:29;5.50;;;5.00;;
66893;SDS011;53801;55.786;49.142;2023-08-20T09:16:59;5.68;;;5.18;;
66893;SDS011;53801;55.786;49.142;2023-08-20T09:19:27;7.27;;;4.10;;
66893;SDS011;53801;55.786;49.142;2023-08-20T09:21:53;6.53;;;5.90;;
66893;SDS011;53801;55.786;49.142;2023-08-20T09:27:23;5.53;;;4.20;;
66893;SDS011;53801;55.786;49.142;2023-08-20T09:29:53;5.07;;;4.03;;
66893;SDS011;53801;55.786;49.142;2023-08-20T09:32:23;4.60;;;3.45;;
66893;SDS011;53801;55.786;49.142;2023-08-20T09:37:17;3.20;;;2.90;;
66893;SDS011;53801;55.786;49.142;2023-08-20T09:39:43;6.25;;;2.80;;
66893;SDS011;53801;55.786;49.142;2023-08-20T09:42:09;5.40;;;2.90;;
66893;SDS011;53801;55.786;49.142;2023-08-20T09:47:12;2.83;;;2.58;;
66893;SDS011;53801;55.786;49.142;2023-08-20T09:49:38;4.32;;;2.85;;
66893;SDS011;53801;55.786;49.142;2023-08-20T09:52:04;5.25;;;3.72;;
66893;SDS011;53801;55.786;49.142;2023-08-20T09:54:39;2.78;;;2.58;;
66893;SDS011;53801;55.786;49.142;2023-08-20T09:57:12;3.10;;;2.80;;
66893;SDS011;53801;55.786;49.142;2023-08-20T09:59:40;4.07;;;2.92;;
66893;SDS011;53801;55.786;49.142;2023-08-20T10:02:07;2.97;;;2.53;;
66893;SDS011;53801;55.786;49.142;2023-08-20T10:04:35;3.35;;;3.03;;
66893;SDS011;53801;55.786;49.142;2023-08-20T10:07:01;3.30;;;3.00;;
66893;SDS011;53801;55.786;49.142;2023-08-20T10:09:27;3.97;;;3.35;;
66893;SDS011;53801;55.786;49.142;2023-08-20T10:11:53;5.45;;;4.35;;
66893;SDS011;53801;55.786;49.142;2023-08-20T10:14:18;6.47;;;4.40;;
66893;SDS011;53801;55.786;49.142;2023-08-20T10:16:44;5.38;;;4.90;;
66893;SDS011;53801;55.786;49.142;2023-08-20T10:19:10;5.40;;;4.90;;
66893;SDS011;53801;55.786;49.142;2023-08-20T10:21:36;11.17;;;4.70;;
66893;SDS011;53801;55.786;49.142;2023-08-20T10:24:08;5.22;;;4.45;;
66893;SDS011;53801;55.786;49.142;2023-08-20T10:26:36;5.67;;;5.07;;
66893;SDS011;53801;55.786;49.142;2023-08-20T10:31:46;3.17;;;2.40;;
66893;SDS011;53801;55.786;49.142;2023-08-20T10:34:12;5.22;;;3.08;;
66893;SDS011;53801;55.786;49.142;2023-08-20T10:36:56;4.40;;;2.88;;
66893;SDS011;53801;55.786;49.142;2023-08-20T10:39:22;4.10;;;3.00;;
66893;SDS011;53801;55.786;49.142;2023-08-20T10:41:48;3.20;;;2.60;;
66893;SDS011;53801;55.786;49.142;2023-08-20T10:50:02;5.63;;;2.50;;
66893;SDS011;53801;55.786;49.142;2023-08-20T10:52:30;4.45;;;2.58;;
66893;SDS011;53801;55.786;49.142;2023-08-20T10:54:55;4.03;;;2.57;;
66893;SDS011;53801;55.786;49.142;2023-08-20T10:57:21;2.77;;;2.23;;
66893;SDS011;53801;55.786;49.142;2023-08-20T10:59:56;4.72;;;2.40;;
66893;SDS011;53801;55.786;49.142;2023-08-20T11:02:23;5.35;;;2.60;;
66893;SDS011;53801;55.786;49.142;2023-08-20T11:04:48;3.80;;;3.50;;
66893;SDS011;53801;55.786;49.142;2023-08-20T11:07:16;5.67;;;2.20;;
66893;SDS011;53801;55.786;49.142;2023-08-20T11:09:42;3.47;;;2.47;;
66893;SDS011;53801;55.786;49.142;2023-08-20T11:12:10;3.75;;;2.80;;
66893;SDS011;53801;55.786;49.142;2023-08-20T11:14:35;7.07;;;2.33;;
66893;SDS011;53801;55.786;49.142;2023-08-20T11:17:01;5.85;;;2.30;;
66893;SDS011;53801;55.786;49.142;2023-08-20T11:19:27;2.50;;;2.30;;
66893;SDS011;53801;55.786;49.142;2023-08-20T11:21:54;3.10;;;2.65;;
66893;SDS011;53801;55.786;49.142;2023-08-20T11:24:19;4.72;;;2.90;;
66893;SDS011;53801;55.786;49.142;2023-08-20T11:26:45;4.15;;;2.60;;
66893;SDS011;53801;55.786;49.142;2023-08-20T11:29:12;3.90;;;2.20;;
66893;SDS011;53801;55.786;49.142;2023-08-20T11:31:38;5.00;;;2.00;;
66893;SDS011;53801;55.786;49.142;2023-08-20T11:34:04;3.95;;;2.40;;
66893;SDS011;53801;55.786;49.142;2023-08-20T11:36:30;3.92;;;2.55;;
66893;SDS011;53801;55.786;49.142;2023-08-20T11:38:55;5.25;;;2.50;;
66893;SDS011;53801;55.786;49.142;2023-08-20T11:41:21;3.83;;;2.30;;
66893;SDS011;53801;55.786;49.142;2023-08-20T11:43:47;3.10;;;2.20;;
66893;SDS011;53801;55.786;49.142;2023-08-20T11:46:13;3.63;;;2.40;;
66893;SDS011;53801;55.786;49.142;2023-08-20T11:51:24;7.20;;;2.78;;
66893;SDS011;53801;55.786;49.142;2023-08-20T11:53:49;4.10;;;2.17;;
66893;SDS011;53801;55.786;49.142;2023-08-20T11:56:15;5.68;;;2.35;;
66893;SDS011;53801;55.786;49.142;2023-08-20T11:58:41;7.90;;;3.00;;
66893;SDS011;53801;55.786;49.142;2023-08-20T12:01:09;4.07;;;2.60;;
66893;SDS011;53801;55.786;49.142;2023-08-20T12:03:37;7.18;;;2.90;;
66893;SDS011;53801;55.786;49.142;2023-08-20T12:08:43;3.67;;;2.30;;
66893;SDS011;53801;55.786;49.142;2023-08-20T12:11:09;4.57;;;2.80;;
66893;SDS011;53801;55.786;49.142;2023-08-20T12:13:35;6.07;;;2.90;;
66893;SDS011;53801;55.786;49.142;2023-08-20T12:16:03;4.10;;;2.60;;
66893;SDS011;53801;55.786;49.142;2023-08-20T12:18:31;9.60;;;4.67;;
66893;SDS011;53801;55.786;49.142;2023-08-20T12:21:11;8.75;;;4.10;;
66893;SDS011;53801;55.786;49.142;2023-08-20T12:23:53;6.80;;;3.40;;
66893;SDS011;53801;55.786;49.142;2023-08-20T12:26:19;5.53;;;3.40;;
66893;SDS011;53801;55.786;49.142;2023-08-20T12:28:44;6.23;;;2.90;;
66893;SDS011;53801;55.786;49.142;2023-08-20T12:31:13;6.40;;;3.15;;
66893;SDS011;53801;55.786;49.142;2023-08-20T12:33:39;5.63;;;2.90;;
66893;SDS011;53801;55.786;49.142;2023-08-20T12:36:08;3.43;;;2.40;;
66893;SDS011;53801;55.786;49.142;2023-08-20T12:38:33;4.22;;;2.50;;
66893;SDS011;53801;55.786;49.142;2023-08-20T12:41:03;5.88;;;2.80;;
66893;SDS011;53801;55.786;49.142;2023-08-20T12:43:30;4.20;;;2.80;;
66893;SDS011;53801;55.786;49.142;2023-08-20T12:46:02;3.90;;;2.40;;
66893;SDS011;53801;55.786;49.142;2023-08-20T12:48:58;4.25;;;2.65;;
66893;SDS011;53801;55.786;49.142;2023-08-20T12:51:23;4.60;;;2.53;;
66893;SDS011;53801;55.786;49.142;2023-08-20T12:53:49;3.42;;;2.88;;
66893;SDS011;53801;55.786;49.142;2023-08-20T12:56:15;4.50;;;2.70;;
66893;SDS011;53801;55.786;49.142;2023-08-20T13:04:24;3.63;;;2.38;;
66893;SDS011;53801;55.786;49.142;2023-08-20T13:06:49;5.70;;;2.10;;
66893;SDS011;53801;55.786;49.142;2023-08-20T13:09:15;5.10;;;2.35;;
66893;SDS011;53801;55.786;49.142;2023-08-20T13:11:41;3.03;;;2.20;;
66893;SDS011;53801;55.786;49.142;2023-08-20T13:14:08;5.30;;;1.92;;
66893;SDS011;53801;55.786;49.142;2023-08-20T13:16:44;3.42;;;2.50;;
66893;SDS011;53801;55.786;49.142;2023-08-20T13:19:16;4.07;;;2.60;;
66893;SDS011;53801;55.786;49.142;2023-08-20T13:21:41;4.63;;;2.50;;
66893;SDS011;53801;55.786;49.142;2023-08-20T13:24:07;4.00;;;2.55;;
66893;SDS011;53801;55.786;49.142;2023-08-20T13:26:34;3.75;;;2.75;;
66893;SDS011;53801;55.786;49.142;2023-08-20T13:29:00;5.50;;;2.80;;
66893;SDS011;53801;55.786;49.142;2023-08-20T13:31:25;7.22;;;3.60;;
66893;SDS011;53801;55.786;49.142;2023-08-20T13:33:53;4.78;;;2.65;;
66893;SDS011;53801;55.786;49.142;2023-08-20T13:36:19;4.85;;;2.40;;
66893;SDS011;53801;55.786;49.142;2023-08-20T13:38:45;4.63;;;2.50;;
66893;SDS011;53801;55.786;49.142;2023-08-20T13:41:10;4.80;;;2.70;;
66893;SDS011;53801;55.786;49.142;2023-08-20T13:43:36;4.80;;;2.43;;
66893;SDS011;53801;55.786;49.142;2023-08-20T13:46:01;4.70;;;2.20;;
66893;SDS011;53801;55.786;49.142;2023-08-20T13:48:27;4.53;;;2.80;;
66893;SDS011;53801;55.786;49.142;2023-08-20T13:50:52;5.03;;;2.67;;
66893;SDS011;53801;55.786;49.142;2023-08-20T13:53:18;7.47;;;2.75;;
66893;SDS011;53801;55.786;49.142;2023-08-20T13:55:43;6.50;;;3.10;;
66893;SDS011;53801;55.786;49.142;2023-08-20T13:58:09;3.97;;;2.80;;
66893;SDS011;53801;55.786;49.142;2023-08-20T14:00:34;7.50;;;2.90;;
66893;SDS011;53801;55.786;49.142;2023-08-20T14:02:59;5.30;;;2.90;;
66893;SDS011;53801;55.786;49.142;2023-08-20T14:05:25;5.47;;;2.53;;
66893;SDS011;53801;55.786;49.142;2023-08-20T14:07:51;4.77;;;2.40;;
66893;SDS011;53801;55.786;49.142;2023-08-20T14:10:16;8.45;;;3.97;;
66893;SDS011;53801;55.786;49.142;2023-08-20T14:12:42;6.53;;;3.40;;
66893;SDS011;53801;55.786;49.142;2023-08-20T14:15:08;7.47;;;3.10;;
66893;SDS011;53801;55.786;49.142;2023-08-20T14:17:33;5.05;;;3.10;;
66893;SDS011;53801;55.786;49.142;2023-08-20T14:19:59;9.50;;;4.27;;
66893;SDS011;53801;55.786;49.142;2023-08-20T14:22:24;5.45;;;3.55;;
66893;SDS011;53801;55.786;49.142;2023-08-20T14:24:55;7.07;;;3.63;;
66893;SDS011;53801;55.786;49.142;2023-08-20T14:27:20;10.80;;;3.33;;
66893;SDS011;53801;55.786;49.142;2023-08-20T14:29:47;4.85;;;2.60;;
66893;SDS011;53801;55.786;49.142;2023-08-20T14:32:13;6.85;;;3.20;;
66893;SDS011;53801;55.786;49.142;2023-08-20T14:34:38;5.63;;;3.30;;
66893;SDS011;53801;55.786;49.142;2023-08-20T14:37:04;9.80;;;3.23;;
66893;SDS011;53801;55.786;49.142;2023-08-20T14:39:57;6.53;;;3.20;;
66893;SDS011;53801;55.786;49.142;2023-08-20T14:42:44;5.70;;;3.45;;
66893;SDS011;53801;55.786;49.142;2023-08-20T14:45:45;5.93;;;3.08;;
66893;SDS011;53801;55.786;49.142;2023-08-20T14:48:10;4.73;;;2.77;;
66893;SDS011;53801;55.786;49.142;2023-08-20T14:50:36;5.18;;;2.70;;
66893;SDS011;53801;55.786;49.142;2023-08-20T14:53:01;8.57;;;3.25;;
66893;SDS011;53801;55.786;49.142;2023-08-20T14:55:27;7.33;;;3.17;;
66893;SDS011;53801;55.786;49.142;2023-08-20T14:57:52;7.70;;;3.57;;
66893;SDS011;53801;55.786;49.142;2023-08-20T15:00:27;8.25;;;3.22;;
66893;SDS011;53801;55.786;49.142;2023-08-20T15:02:58;6.40;;;3.00;;
66893;SDS011;53801;55.786;49.142;2023-08-20T15:05:32;6.47;;;3.20;;
66893;SDS011;53801;55.786;49.142;2023-08-20T15:07:58;5.37;;;3.30;;
66893;SDS011;53801;55.786;49.142;2023-08-20T15:10:24;6.22;;;3.25;;
66893;SDS011;53801;55.786;49.142;2023-08-20T15:12:49;7.50;;;3.20;;
66893;SDS011;53801;55.786;49.142;2023-08-20T15:15:15;9.60;;;3.23;;
66893;SDS011;53801;55.786;49.142;2023-08-20T15:17:47;6.55;;;3.25;;
66893;SDS011;53801;55.786;49.142;2023-08-20T15:20:17;4.53;;;3.00;;
66893;SDS011;53801;55.786;49.142;2023-08-20T15:22:43;5.60;;;3.10;;
66893;SDS011;53801;55.786;49.142;2023-08-20T15:25:09;8.63;;;3.63;;